createdAt,value
2023-01-11T00:02:09.993Z,76.26
2023-01-11T00:04:38.860Z,76.13
2023-01-11T00:07:10.305Z,76.15
2023-01-11T00:09:39.527Z,76.08
2023-01-11T00:12:08.992Z,76.18
2023-01-11T00:14:38.040Z,76.19
2023-01-11T00:17:07.190Z,76.27
2023-01-11T00:19:38.428Z,76.19
2023-01-11T00:22:07.668Z,76.23
2023-01-11T00:24:36.546Z,76.16
2023-01-11T00:27:09.186Z,76.19
2023-01-11T00:29:39.536Z,76.19
2023-01-11T00:32:08.548Z,76.21
2023-01-11T00:34:37.977Z,76.16
2023-01-11T00:37:06.924Z,76.18
2023-01-11T00:39:36.976Z,76.27
2023-01-11T00:42:25.587Z,76.25
2023-01-11T00:45:14.008Z,76.18
2023-01-11T00:47:58.756Z,75.98
2023-01-11T00:50:34.481Z,76.06
2023-01-11T00:53:08.522Z,76.13
2023-01-11T00:55:38.965Z,76.19
2023-01-11T00:58:08.544Z,76.41
2023-01-11T04:01:26.810Z,75.67
2023-01-11T04:03:55.662Z,75.63
2023-01-11T04:06:26.443Z,75.75
2023-01-11T04:08:55.327Z,75.72
2023-01-11T04:11:24.674Z,75.77
2023-01-11T04:13:53.719Z,75.64
2023-01-11T04:16:21.775Z,75.68
2023-01-11T04:18:50.453Z,75.97
2023-01-11T04:21:19.366Z,75.74
2023-01-11T04:23:48.331Z,75.90
2023-01-11T04:26:18.083Z,75.64
2023-01-11T04:28:47.477Z,75.73
2023-01-11T04:31:16.337Z,75.81
2023-01-11T04:33:45.159Z,76.07
2023-01-11T04:36:14.628Z,75.89
2023-01-11T04:38:43.626Z,75.82
2023-01-11T04:41:31.714Z,75.80
2023-01-11T04:44:01.544Z,75.87
2023-01-11T04:46:30.638Z,75.92
2023-01-11T04:48:59.560Z,75.88
2023-01-11T04:51:28.175Z,76.03
2023-01-11T04:53:57.229Z,76.10
2023-01-11T04:56:26.364Z,75.85
2023-01-11T04:58:55.391Z,75.63
2023-01-11T05:01:24.550Z,75.74
2023-01-11T05:03:53.579Z,75.94
2023-01-11T05:06:22.917Z,75.88
2023-01-11T05:08:51.843Z,75.83
2023-01-11T05:11:20.748Z,75.72
2023-01-11T05:13:48.904Z,75.84
2023-01-11T05:16:21.820Z,75.83
2023-01-11T05:18:53.166Z,75.50
2023-01-11T05:21:27.048Z,75.78
2023-01-11T05:23:56.369Z,75.61
2023-01-11T05:26:32.633Z,75.57
2023-01-11T05:29:06.484Z,75.89
2023-01-11T05:31:36.823Z,75.94
2023-01-11T05:34:07.322Z,75.83
2023-01-11T05:36:36.615Z,75.77
2023-01-11T05:39:06.417Z,75.83
2023-01-11T05:41:35.819Z,75.55
2023-01-11T05:44:24.287Z,75.73
2023-01-11T05:46:53.411Z,75.42
2023-01-11T05:49:22.832Z,75.51
2023-01-11T05:51:51.845Z,75.55
2023-01-11T05:54:20.896Z,75.73
2023-01-11T05:56:49.833Z,75.75
2023-01-11T05:59:19.056Z,75.69
2023-01-11T06:01:48.067Z,75.63
2023-01-11T06:04:16.576Z,75.64
2023-01-11T06:06:45.638Z,75.57
2023-01-11T06:09:14.569Z,75.66
2023-01-11T06:11:43.475Z,75.67
2023-01-11T06:14:12.555Z,75.67
2023-01-11T06:16:41.871Z,75.61
2023-01-11T06:19:11.977Z,75.69
2023-01-11T06:21:43.668Z,75.59
2023-01-11T06:24:12.587Z,75.66
2023-01-11T06:26:41.434Z,75.79
2023-01-11T06:29:10.298Z,75.78
2023-01-11T06:31:39.394Z,75.61
2023-01-11T06:34:08.554Z,75.68
2023-01-11T06:36:40.097Z,75.78
2023-01-11T06:39:09.817Z,75.85
2023-01-11T06:41:38.863Z,75.83
2023-01-11T06:44:07.734Z,75.87
2023-01-11T06:46:36.698Z,75.70
2023-01-11T06:49:05.865Z,75.73
2023-01-11T06:51:35.107Z,75.67
2023-01-11T06:54:04.340Z,75.75
2023-01-11T06:56:33.707Z,75.70
2023-01-11T06:59:02.475Z,75.56
2023-01-11T07:01:32.962Z,75.75
2023-01-11T07:04:02.137Z,75.67
2023-01-11T07:06:32.620Z,75.67
2023-01-11T07:09:02.632Z,75.76
2023-01-11T07:11:35.387Z,75.74
2023-01-11T07:14:04.408Z,75.33
2023-01-11T07:16:33.399Z,75.24
2023-01-11T07:19:01.434Z,75.35
2023-01-11T07:21:30.372Z,75.45
2023-01-11T07:23:59.287Z,75.62
2023-01-11T07:26:28.842Z,75.62
2023-01-11T07:29:01.099Z,75.51
2023-01-11T07:31:30.169Z,75.53
2023-01-11T07:33:58.989Z,75.45
2023-01-11T07:36:28.165Z,75.50
2023-01-11T07:38:57.525Z,75.54
2023-01-11T07:41:53.636Z,75.30
2023-01-11T07:44:22.859Z,75.56
2023-01-11T07:46:52.012Z,75.63
2023-01-11T07:49:21.272Z,75.61
2023-01-11T07:51:52.637Z,75.69
2023-01-11T07:54:20.850Z,75.44
2023-01-11T07:56:49.880Z,75.29
2023-01-11T07:59:19.164Z,75.30
2023-01-11T08:01:48.361Z,75.22
2023-01-11T08:04:17.818Z,75.29
2023-01-11T08:06:46.909Z,74.99
2023-01-11T08:09:16.179Z,75.21
2023-01-11T08:12:04.018Z,75.07
2023-01-11T08:14:42.893Z,75.18
2023-01-11T08:17:14.826Z,75.32
2023-01-11T08:19:44.530Z,75.09
2023-01-11T08:22:13.411Z,75.19
2023-01-11T08:24:41.879Z,75.05
2023-01-11T08:27:11.388Z,75.06
2023-01-11T08:29:44.816Z,75.07
2023-01-11T08:32:14.509Z,75.01
2023-01-11T08:34:43.842Z,75.14
2023-01-11T08:37:13.079Z,75.12
2023-01-11T08:39:41.987Z,75.12
2023-01-11T08:42:11.195Z,75.18
2023-01-11T08:44:40.195Z,75.11
2023-01-11T08:47:09.289Z,74.99
2023-01-11T08:49:39.852Z,74.90
2023-01-11T08:52:13.523Z,75.06
2023-01-11T08:54:42.643Z,75.00
2023-01-11T08:57:14.514Z,74.95
2023-01-11T08:59:43.675Z,75.04
2023-01-11T09:02:13.472Z,75.23
2023-01-11T09:04:42.958Z,75.13
2023-01-11T09:07:12.131Z,75.05
2023-01-11T09:09:40.890Z,75.18
2023-01-11T09:12:10.141Z,75.01
2023-01-11T09:14:38.975Z,74.65
2023-01-11T09:17:08.940Z,74.74
2023-01-11T09:19:38.017Z,74.95
2023-01-11T09:22:07.101Z,75.06
2023-01-11T09:24:35.290Z,75.13
2023-01-11T09:27:05.229Z,74.87
2023-01-11T09:29:37.051Z,74.86
2023-01-11T09:32:06.830Z,74.84
2023-01-11T09:34:36.621Z,74.87
2023-01-11T09:37:07.298Z,74.87
2023-01-11T09:39:37.423Z,74.73
2023-01-11T09:42:39.896Z,74.81
2023-01-11T09:45:24.549Z,74.84
2023-01-11T09:47:55.039Z,74.86
2023-01-11T09:50:29.680Z,74.88
2023-01-11T09:53:08.739Z,74.86
2023-01-11T09:55:46.413Z,74.99
2023-01-11T09:58:40.836Z,74.88
2023-01-11T10:01:18.655Z,74.79
2023-01-11T10:04:29.380Z,74.88
2023-01-11T10:07:01.709Z,74.73
2023-01-11T10:18:25.908Z,74.75
2023-01-11T10:19:35.891Z,74.85
2023-01-11T10:22:24.550Z,74.84
2023-01-11T10:25:06.255Z,74.78
2023-01-11T10:27:41.428Z,74.63
2023-01-11T10:30:39.175Z,74.54
2023-01-11T10:34:05.218Z,74.55
2023-01-11T10:37:24.870Z,74.57
2023-01-11T10:40:29.351Z,74.51
2023-01-11T10:43:25.086Z,74.62
2023-01-11T10:45:58.816Z,74.67
2023-01-11T10:48:32.540Z,74.64
2023-01-11T10:51:29.920Z,74.64
2023-01-11T10:54:02.428Z,74.61
2023-01-11T10:57:01.895Z,74.65
2023-01-11T10:59:56.323Z,74.53
2023-01-11T11:02:47.104Z,74.74
2023-01-11T11:05:33.453Z,74.42
2023-01-11T11:08:32.365Z,74.39
2023-01-11T11:11:09.140Z,74.52
2023-01-11T11:13:46.349Z,74.40
2023-01-11T11:16:24.754Z,74.30
2023-01-11T11:18:59.233Z,74.31
2023-01-11T11:21:34.621Z,74.45
2023-01-11T11:24:09.950Z,74.52
2023-01-11T11:26:47.632Z,74.20
2023-01-11T11:29:30.035Z,74.02
2023-01-11T11:32:01.431Z,74.03
2023-01-11T11:34:31.482Z,73.91
2023-01-11T11:37:01.381Z,74.10
2023-01-11T11:39:32.409Z,73.89
2023-01-11T11:42:15.924Z,73.82
2023-01-11T11:44:44.956Z,73.90
2023-01-11T11:47:17.933Z,74.03
2023-01-11T11:49:46.913Z,74.00
2023-01-11T11:52:17.999Z,73.83
2023-01-11T11:54:58.208Z,73.82
2023-01-11T11:57:34.276Z,73.82
2023-01-11T12:00:08.007Z,73.85
2023-01-11T12:02:49.929Z,73.58
2023-01-11T12:05:18.857Z,73.81
2023-01-11T12:07:55.177Z,73.53
2023-01-11T12:14:11.623Z,73.22
2023-01-11T12:16:41.660Z,73.70
2023-01-11T12:19:27.456Z,73.34
2023-01-11T12:22:17.344Z,73.18
2023-01-11T12:24:47.057Z,73.15
2023-01-11T12:27:33.658Z,73.36
2023-01-11T12:30:14.285Z,73.79
2023-01-11T12:33:05.817Z,73.48
2023-01-11T12:36:11.403Z,73.62
2023-01-11T12:38:48.703Z,73.47
2023-01-11T12:41:45.025Z,73.43
2023-01-11T12:44:26.921Z,73.34
2023-01-11T12:47:23.529Z,73.40
2023-01-11T12:50:22.547Z,73.42
2023-01-11T12:53:08.911Z,73.30
2023-01-11T12:55:56.703Z,73.50
2023-01-11T12:58:30.276Z,73.27
2023-01-11T13:01:24.667Z,73.48
2023-01-11T13:03:58.155Z,73.08
2023-01-11T13:06:58.658Z,73.24
2023-01-11T13:09:34.183Z,73.04
2023-01-11T13:12:02.248Z,73.06
2023-01-11T13:14:36.622Z,73.12
2023-01-11T13:17:32.315Z,73.08
2023-01-11T13:20:18.273Z,73.12
2023-01-11T13:22:57.962Z,73.08
2023-01-11T13:25:31.618Z,73.14
2023-01-11T13:28:00.515Z,73.22
2023-01-11T13:30:28.294Z,73.31
2023-01-11T13:33:07.069Z,73.19
2023-01-11T13:35:44.891Z,73.23
2023-01-11T13:38:34.773Z,73.05
2023-01-11T13:41:15.363Z,73.08
2023-01-11T13:43:46.369Z,73.03
2023-01-11T13:46:36.537Z,73.24
2023-01-11T13:49:33.598Z,73.25
2023-01-11T13:52:10.682Z,73.10
2023-01-11T13:55:25.951Z,73.19
2023-01-11T13:58:08.928Z,73.04
2023-01-11T14:00:45.822Z,73.28
2023-01-11T14:03:29.048Z,72.94
2023-01-11T14:06:11.685Z,73.03
2023-01-11T14:08:52.213Z,73.01
2023-01-11T14:11:34.025Z,73.01
2023-01-11T14:14:23.960Z,72.83
2023-01-11T14:17:25.137Z,73.15
2023-01-11T14:20:07.619Z,73.22
2023-01-11T14:22:46.950Z,72.94
2023-01-11T14:25:50.605Z,72.96
2023-01-11T14:28:30.591Z,72.96
2023-01-11T14:31:20.007Z,72.90
2023-01-11T14:34:07.866Z,72.87
2023-01-11T14:36:53.813Z,72.84
2023-01-11T14:39:27.213Z,72.99
2023-01-11T14:42:06.856Z,72.91
2023-01-11T14:45:13.657Z,72.90
2023-01-11T14:47:59.602Z,73.00
2023-01-11T14:50:42.299Z,73.07
2023-01-11T14:53:16.939Z,73.00
2023-01-11T14:55:47.869Z,72.95
2023-01-11T14:58:29.248Z,72.98
2023-01-11T15:00:56.844Z,72.89
2023-01-11T15:03:30.642Z,72.82
2023-01-11T15:06:10.938Z,72.87
2023-01-11T15:08:51.191Z,72.76
2023-01-11T15:11:25.159Z,72.88
2023-01-11T15:14:03.637Z,72.97
2023-01-11T15:17:01.389Z,73.02
2023-01-11T15:19:39.213Z,72.92
2023-01-11T15:22:07.562Z,72.87
2023-01-11T15:24:54.134Z,72.79
2023-01-11T15:27:37.495Z,72.84
2023-01-11T15:30:07.422Z,72.69
2023-01-11T15:32:35.673Z,72.71
2023-01-11T15:35:31.001Z,72.83
2023-01-11T15:38:20.593Z,72.81
2023-01-11T15:40:49.461Z,72.82
2023-01-11T15:43:55.625Z,72.82
2023-01-11T15:46:54.031Z,72.86
2023-01-11T15:49:39.912Z,72.69
2023-01-11T15:52:26.797Z,72.71
2023-01-11T15:55:12.573Z,72.65
2023-01-11T15:57:48.733Z,72.75
2023-01-11T16:00:34.690Z,72.70
2023-01-11T16:03:25.076Z,72.69
2023-01-11T16:06:08.558Z,72.80
2023-01-11T16:08:45.185Z,72.83
2023-01-11T16:11:35.733Z,72.83
2023-01-11T16:14:27.652Z,72.73
2023-01-11T16:16:55.422Z,72.82
2023-01-11T16:19:28.984Z,72.72
2023-01-11T16:22:22.206Z,72.78
2023-01-11T16:25:05.398Z,72.54
2023-01-11T16:27:36.204Z,72.59
2023-01-11T16:30:17.772Z,72.67
2023-01-11T16:32:44.694Z,72.73
2023-01-11T16:35:39.249Z,72.77
2023-01-11T16:38:15.801Z,72.65
2023-01-11T16:40:47.351Z,72.68
2023-01-11T16:43:23.211Z,72.76
2023-01-11T16:45:55.563Z,72.69
2023-01-11T16:48:28.134Z,72.48
2023-01-11T16:51:02.335Z,72.63
2023-01-11T16:53:34.859Z,72.52
2023-01-11T16:56:14.899Z,72.53
2023-01-11T16:58:42.976Z,72.37
2023-01-11T17:01:15.291Z,72.50
2023-01-11T17:03:54.369Z,72.41
2023-01-11T17:06:25.014Z,72.49
2023-01-11T17:08:55.171Z,72.46
2023-01-11T17:11:44.824Z,72.49
2023-01-11T17:14:59.022Z,72.53
2023-01-11T17:17:27.458Z,72.27
2023-01-11T17:20:08.565Z,72.48
2023-01-11T17:22:37.838Z,72.41
2023-01-11T17:25:44.464Z,72.44
2023-01-11T17:28:20.711Z,72.35
2023-01-11T17:30:51.091Z,72.29
2023-01-11T17:33:27.782Z,72.38
2023-01-11T17:35:58.746Z,72.43
2023-01-11T17:38:28.276Z,72.53
2023-01-11T17:40:58.749Z,72.34
2023-01-11T17:43:47.676Z,72.51
2023-01-11T17:46:23.792Z,72.19
2023-01-11T17:48:59.450Z,72.27
2023-01-11T17:51:33.355Z,72.26
2023-01-11T17:54:00.919Z,72.15
2023-01-11T17:56:41.326Z,72.22
2023-01-11T17:59:11.921Z,72.45
2023-01-11T18:01:45.419Z,72.39
2023-01-11T18:04:18.933Z,72.20
2023-01-11T18:06:48.904Z,72.42
2023-01-11T18:09:35.811Z,72.37
2023-01-11T18:12:13.811Z,72.26
2023-01-11T18:15:03.310Z,72.16
2023-01-11T18:17:38.663Z,72.27
2023-01-11T18:20:14.852Z,72.06
2023-01-11T18:22:58.361Z,72.19
2023-01-11T18:25:31.277Z,72.29
2023-01-11T18:28:17.798Z,72.23
2023-01-11T18:30:52.712Z,72.13
2023-01-11T18:33:23.817Z,72.26
2023-01-11T18:35:59.830Z,72.28
2023-01-11T18:38:29.784Z,72.25
2023-01-11T18:41:20.216Z,72.25
2023-01-11T18:43:47.527Z,72.14
2023-01-11T18:46:14.467Z,72.18
2023-01-11T18:48:42.390Z,72.06
2023-01-11T18:51:18.569Z,72.03
2023-01-11T18:53:46.163Z,72.18
2023-01-11T18:56:16.369Z,72.05
2023-01-11T18:58:43.246Z,72.01
2023-01-11T19:01:11.449Z,72.10
2023-01-11T19:03:39.035Z,72.15
2023-01-11T19:06:16.102Z,72.08
2023-01-11T19:08:43.907Z,71.97
2023-01-11T19:11:13.891Z,71.99
2023-01-11T19:13:42.265Z,71.88
2023-01-11T19:16:09.510Z,71.94
2023-01-11T19:18:36.590Z,72.02
2023-01-11T19:21:10.900Z,71.92
2023-01-11T19:23:38.765Z,72.01
2023-01-11T19:26:07.269Z,72.07
2023-01-11T19:28:38.132Z,72.03
2023-01-11T19:31:13.070Z,72.05
2023-01-11T19:33:41.237Z,71.97
2023-01-11T19:36:10.855Z,71.74
2023-01-11T19:38:39.189Z,71.81
2023-01-11T19:41:09.301Z,71.88
2023-01-11T19:43:44.840Z,72.04
2023-01-11T19:46:19.647Z,72.04
2023-01-11T19:48:55.695Z,71.97
2023-01-11T19:51:23.919Z,71.98
2023-01-11T19:53:51.667Z,72.02
2023-01-11T19:56:19.564Z,71.96
2023-01-11T19:58:47.166Z,71.80
2023-01-11T20:01:16.787Z,71.89
2023-01-11T20:03:44.656Z,71.90
2023-01-11T20:06:15.596Z,71.85
2023-01-11T20:08:43.669Z,71.87
2023-01-11T20:11:15.641Z,71.77
2023-01-11T20:13:59.745Z,71.86
2023-01-11T20:16:26.555Z,71.79
2023-01-11T20:18:57.884Z,71.78
2023-01-11T20:21:28.612Z,71.81
2023-01-11T20:23:58.588Z,71.76
2023-01-11T20:26:30.385Z,71.80
2023-01-11T20:29:02.379Z,71.82
2023-01-11T20:31:35.245Z,71.68
2023-01-11T20:34:10.007Z,71.85
2023-01-11T20:36:37.938Z,71.89
2023-01-11T20:39:10.232Z,71.87
2023-01-11T20:41:49.572Z,71.67
2023-01-11T20:44:31.895Z,72.03
2023-01-11T20:47:00.083Z,72.00
2023-01-11T20:49:29.741Z,71.83
2023-01-11T20:51:58.228Z,72.06
2023-01-11T20:54:25.766Z,71.81
2023-01-11T20:56:54.907Z,71.90
2023-01-11T20:59:22.964Z,71.89
2023-01-11T21:01:50.550Z,71.89
2023-01-11T21:04:18.538Z,71.95
2023-01-11T21:06:47.960Z,72.10
2023-01-11T21:09:17.424Z,72.06
2023-01-11T21:11:53.370Z,72.16
2023-01-11T21:14:25.680Z,72.01
2023-01-11T21:16:57.918Z,72.02
2023-01-11T21:19:29.364Z,72.00
2023-01-11T21:21:59.980Z,72.00
2023-01-11T21:24:46.332Z,71.95
2023-01-11T21:27:17.750Z,71.85
2023-01-11T21:29:44.920Z,72.04
2023-01-11T21:32:15.473Z,71.92
2023-01-11T21:34:43.129Z,72.01
2023-01-11T21:37:10.306Z,72.14
2023-01-11T21:39:41.676Z,72.04
2023-01-11T21:42:09.163Z,72.07
2023-01-11T21:44:35.801Z,72.21
2023-01-11T21:47:05.807Z,72.09
2023-01-11T21:49:33.885Z,71.87
2023-01-11T21:52:01.457Z,72.20
2023-01-11T21:54:30.023Z,72.14
2023-01-11T21:56:57.648Z,72.25
2023-01-11T21:59:25.390Z,72.39
2023-01-11T22:01:52.608Z,72.26
2023-01-11T22:04:20.734Z,72.34
2023-01-11T22:06:54.103Z,72.39
2023-01-11T22:09:24.211Z,72.33
2023-01-11T22:11:51.717Z,72.29
2023-01-11T22:14:24.365Z,72.30
2023-01-11T22:16:52.639Z,72.33
2023-01-11T22:19:28.412Z,72.19
2023-01-11T22:21:55.569Z,72.34
2023-01-11T22:24:24.084Z,72.49
2023-01-11T22:26:51.397Z,72.57
2023-01-11T22:29:19.742Z,72.52
2023-01-11T22:32:05.894Z,72.54
2023-01-11T22:34:38.785Z,72.49
2023-01-11T22:37:06.584Z,72.31
2023-01-11T22:39:33.922Z,72.33
2023-01-11T22:42:01.063Z,72.62
2023-01-11T22:44:28.061Z,72.43
2023-01-11T22:46:59.985Z,72.70
2023-01-11T22:49:37.540Z,72.57
2023-01-11T22:52:06.240Z,72.59
2023-01-11T22:54:34.458Z,72.65
2023-01-11T22:57:06.471Z,72.48
2023-01-11T22:59:38.495Z,72.55
2023-01-11T23:02:06.177Z,72.42
2023-01-11T23:04:33.615Z,72.61
2023-01-11T23:07:01.404Z,72.66
2023-01-11T23:09:45.381Z,72.55
2023-01-11T23:12:34.489Z,72.84
2023-01-11T23:15:05.775Z,72.69
2023-01-11T23:17:36.709Z,72.69
2023-01-11T23:20:10.876Z,72.73
2023-01-11T23:22:41.726Z,72.47
2023-01-11T23:25:12.531Z,72.59
2023-01-11T23:27:46.405Z,72.38
2023-01-11T23:30:13.936Z,72.67
2023-01-11T23:32:44.717Z,72.87
2023-01-11T23:35:15.528Z,72.83
2023-01-11T23:37:46.467Z,72.89
2023-01-11T23:40:17.959Z,72.73
2023-01-11T23:42:48.484Z,72.57
2023-01-11T23:45:19.950Z,72.68
2023-01-11T23:47:51.014Z,72.62
2023-01-11T23:51:23.459Z,72.87
2023-01-11T23:53:55.577Z,72.77
2023-01-11T23:56:30.512Z,72.94
2023-01-11T23:59:03.872Z,72.99
